Terminal Aerodrome Forecast
Issued by NWS Sterling, VA

Current Version | Previous Version | Graphics & Text | Print | Product List | Glossary On
Versions: 1 2 3 4 5 6 7 8 9 10 11 12 13 14 15 16 17 18 19 20 21 22 23
899
FTUS41 KLWX 250859 AAA
TAFIAD
TAF AMD
KIAD 250859Z 2509/2612 07011KT 3SM RA SCT003 OVC008
     FM251400 18006KT P6SM SCT003 BKN008
     FM251600 21006KT P6SM BKN008
     FM251800 21007KT 5SM -SHRA SCT008 OVC045
     FM252300 23006KT P6SM -SHRA BKN020
     FM260100 24006KT P6SM BKN045=

USA.gov is the U.S. government's official web portal to all federal, state and local government web resources and services.